Time;durP1;ratioP1;P1;durP2;ratioP2;P2;SDS_P1;SDS_P2;PMS_P1;PMS_P2;Temp;Humidity;BMP_temperature;BMP_pressure;BME280_temperature;BME280_humidity;BME280_pressure;Samples;Min_cycle;Max_cycle;Signal;HPM_P1;HPM_P2
2022/10/26 07:06:34;;;;;;;6.23;1.80;;;12.30;99.90;;;;;;5134980;27;20271;-87
2022/10/26 07:09:00;;;;;;;2.60;1.77;;;12.30;99.90;;;;;;5134699;28;20227;-88
2022/10/26 07:11:26;;;;;;;2.70;1.67;;;12.30;99.90;;;;;;5121539;28;20281;-87
2022/10/26 07:45:53;;;;;;;3.83;1.57;;;13.00;99.90;;;;;;5138478;27;20273;-88
2022/10/26 07:48:19;;;;;;;2.73;1.80;;;13.00;99.90;;;;;;5117804;28;20277;-88
2022/10/26 07:50:45;;;;;;;3.43;1.60;;;13.00;99.90;;;;;;5116990;28;20195;-88
2022/10/26 07:53:10;;;;;;;3.07;1.60;;;13.10;99.90;;;;;;5135724;28;20623;-85
2022/10/26 07:55:36;;;;;;;5.87;2.20;;;13.20;99.90;;;;;;5138649;27;20178;-88
2022/10/26 07:58:02;;;;;;;6.90;2.03;;;13.40;99.90;;;;;;5137583;27;20253;-88
2022/10/26 08:00:28;;;;;;;9.43;1.50;;;13.50;99.90;;;;;;5137381;28;20174;-87
2022/10/26 08:02:54;;;;;;;4.37;1.50;;;13.60;99.90;;;;;;5138707;27;20167;-88
2022/10/26 08:05:20;;;;;;;4.27;1.83;;;13.60;99.90;;;;;;5138521;27;20191;-88
2022/10/26 08:07:46;;;;;;;5.33;2.00;;;13.60;99.90;;;;;;5137114;28;20230;-87
2022/10/26 08:10:13;;;;;;;10.83;4.10;;;13.70;99.90;;;;;;5136942;28;20171;-88
2022/10/26 08:12:39;;;;;;;7.30;3.23;;;13.80;99.90;;;;;;5136878;28;20671;-87
2022/10/26 08:15:11;;;;;;;4.90;3.00;;;13.90;99.90;;;;;;5136824;28;20200;-88
2022/10/26 08:17:37;;;;;;;7.30;2.50;;;14.00;99.90;;;;;;5136499;28;20175;-88
2022/10/26 08:20:03;;;;;;;5.07;1.77;;;14.40;99.90;;;;;;5137690;27;20178;-87
2022/10/26 08:22:29;;;;;;;2.80;1.50;;;14.80;99.90;;;;;;5136066;28;20194;-88
2022/10/26 08:25:04;;;;;;;4.60;2.23;;;15.00;99.90;;;;;;5134666;28;20221;-88
2022/10/26 08:27:30;;;;;;;2.17;1.53;;;15.30;99.90;;;;;;5134595;28;20178;-87
2022/10/26 08:29:55;;;;;;;8.00;2.53;;;15.30;99.90;;;;;;5135730;27;20171;-87
2022/10/26 08:32:21;;;;;;;5.37;3.23;;;15.30;99.90;;;;;;5133386;28;20191;-87
2022/10/26 08:34:47;;;;;;;6.30;1.67;;;15.30;99.90;;;;;;5134845;27;20182;-86
2022/10/26 08:37:12;;;;;;;3.83;1.20;;;15.40;99.90;;;;;;5135201;27;20179;-87
2022/10/26 08:39:38;;;;;;;3.60;1.20;;;15.50;99.90;;;;;;5134335;28;20172;-87
2022/10/26 08:42:10;;;;;;;5.77;1.60;;;15.50;99.90;;;;;;5135453;27;20222;-87
2022/10/26 08:44:41;;;;;;;6.40;1.87;;;15.50;99.90;;;;;;5134202;28;20213;-87
2022/10/26 08:47:12;;;;;;;2.17;1.17;;;15.60;99.90;;;;;;5134963;28;20174;-87
2022/10/26 08:50:08;;;;;;;4.17;1.73;;;15.70;99.90;;;;;;5136059;27;20642;-87
2022/10/26 08:52:52;;;;;;;3.80;1.27;;;15.70;99.90;;;;;;5134367;28;20195;-84
2022/10/26 08:55:24;;;;;;;3.90;1.13;;;15.70;99.90;;;;;;5131953;28;20168;-85
2022/10/26 08:57:51;;;;;;;3.40;1.57;;;15.80;99.90;;;;;;5120177;28;20183;-84
2022/10/26 09:00:22;;;;;;;4.73;1.63;;;15.90;99.90;;;;;;5119223;28;20179;-83
2022/10/26 09:02:52;;;;;;;4.27;1.30;;;16.00;99.90;;;;;;5118642;28;20624;-85
2022/10/26 09:05:22;;;;;;;2.17;1.13;;;16.60;99.90;;;;;;5117826;28;20217;-80
2022/10/26 09:08:03;;;;;;;3.53;1.70;;;17.50;99.90;;;;;;5119130;28;20317;-86
2022/10/26 09:10:34;;;;;;;3.97;1.43;;;18.60;99.90;;;;;;5120569;28;20199;-85
2022/10/26 09:13:03;;;;;;;3.27;1.23;;;18.70;99.90;;;;;;5120157;28;20213;-86
2022/10/26 09:15:44;;;;;;;4.17;1.07;;;19.00;99.90;;;;;;5119931;28;20173;-85
2022/10/26 09:18:32;;;;;;;3.63;1.20;;;19.00;99.90;;;;;;5119304;28;20174;-86
2022/10/26 09:21:16;;;;;;;4.63;1.60;;;19.20;99.90;;;;;;5119368;28;20203;-87
2022/10/26 09:23:53;;;;;;;3.70;1.43;;;19.60;99.90;;;;;;5121304;28;20175;-86
2022/10/26 09:26:43;;;;;;;2.13;1.40;;;20.10;99.90;;;;;;5119960;28;20171;-86
2022/10/26 09:29:13;;;;;;;2.03;1.33;;;20.10;99.90;;;;;;5120250;27;20152;-85
2022/10/26 09:31:45;;;;;;;7.27;1.80;;;19.80;99.90;;;;;;5120647;28;20583;-85
2022/10/26 09:34:41;;;;;;;3.13;1.40;;;19.10;99.90;;;;;;5117882;28;20175;-84
2022/10/26 09:37:35;;;;;;;2.07;1.20;;;18.60;99.90;;;;;;5118309;28;20168;-87
2022/10/26 09:40:08;;;;;;;4.03;1.43;;;18.20;99.90;;;;;;5125611;28;20244;-85
2022/10/26 09:42:50;;;;;;;5.23;2.00;;;18.30;99.90;;;;;;5120655;28;20191;-86
2022/10/26 09:45:38;;;;;;;5.93;1.80;;;19.30;99.90;;;;;;5121013;28;20276;-85
2022/10/26 09:48:11;;;;;;;5.50;2.03;;;20.10;99.90;;;;;;5120468;28;20633;-86
2022/10/26 09:50:39;;;;;;;5.03;1.93;;;19.10;99.90;;;;;;5119878;28;20176;-85
2022/10/26 09:53:05;;;;;;;3.60;1.90;;;19.00;99.90;;;;;;5119757;28;20228;-85
2022/10/26 09:55:33;;;;;;;8.87;2.13;;;18.50;99.90;;;;;;5119557;28;20175;-87
2022/10/26 09:58:03;;;;;;;5.80;2.03;;;18.10;99.90;;;;;;5120913;28;20210;-88
2022/10/26 10:00:29;;;;;;;2.83;1.47;;;17.90;99.90;;;;;;5119822;28;20208;-85
2022/10/26 10:02:57;;;;;;;5.33;2.03;;;17.70;99.90;;;;;;5121848;28;20262;-88
2022/10/26 10:05:34;;;;;;;5.00;1.53;;;17.70;99.90;;;;;;5119871;28;20555;-87
2022/10/26 10:08:18;;;;;;;5.03;1.50;;;18.50;99.90;;;;;;5117103;28;20647;-87
2022/10/26 10:11:00;;;;;;;3.87;1.47;;;19.30;99.90;;;;;;5119841;28;20198;-84
2022/10/26 10:13:38;;;;;;;2.43;1.40;;;19.40;99.90;;;;;;5121615;28;20156;-84
2022/10/26 10:16:20;;;;;;;2.53;1.40;;;19.20;99.90;;;;;;5118360;28;20261;-87
2022/10/26 10:18:54;;;;;;;4.80;1.43;;;18.90;99.90;;;;;;5119928;28;20174;-85
2022/10/26 10:21:21;;;;;;;3.47;1.57;;;18.60;99.90;;;;;;5118099;28;20332;-84
2022/10/26 10:23:51;;;;;;;7.37;1.90;;;18.50;99.90;;;;;;5118967;28;20176;-84
2022/10/26 10:26:17;;;;;;;7.63;1.63;;;18.40;99.90;;;;;;5118420;28;20148;-86
2022/10/26 10:28:58;;;;;;;4.90;1.80;;;18.30;99.90;;;;;;5116824;28;20203;-86
2022/10/26 10:31:29;;;;;;;6.43;2.40;;;18.20;99.90;;;;;;5115673;28;20196;-86
2022/10/26 10:33:55;;;;;;;4.50;2.00;;;18.30;99.90;;;;;;5117139;28;20266;-83
2022/10/26 10:36:24;;;;;;;7.50;2.50;;;18.80;99.90;;;;;;5119079;28;20182;-84
2022/10/26 10:38:52;;;;;;;5.63;1.80;;;19.40;99.90;;;;;;5121107;28;20172;-85
2022/10/26 10:41:44;;;;;;;6.10;1.80;;;20.30;99.90;;;;;;5119330;28;20199;-86
2022/10/26 10:44:23;;;;;;;4.87;1.40;;;21.60;99.90;;;;;;5114413;28;20619;-86
2022/10/26 10:46:49;;;;;;;5.80;1.80;;;22.10;99.90;;;;;;5117410;28;20258;-86
2022/10/26 10:49:23;;;;;;;3.13;1.50;;;21.60;99.90;;;;;;5117557;28;20211;-83
2022/10/26 10:51:49;;;;;;;4.20;1.30;;;21.40;99.90;;;;;;5118054;28;20533;-86
2022/10/26 10:54:32;;;;;;;2.37;1.10;;;21.90;99.90;;;;;;5117510;28;20179;-86
2022/10/26 10:57:13;;;;;;;4.40;1.77;;;22.70;99.90;;;;;;5119211;28;20186;-84
2022/10/26 11:00:03;;;;;;;2.83;1.10;;;23.30;99.90;;;;;;5119005;28;20175;-84
2022/10/26 11:02:56;;;;;;;4.20;1.30;;;23.60;99.90;;;;;;5118997;28;20201;-87
2022/10/26 11:05:59;;;;;;;5.40;1.13;;;23.70;99.90;;;;;;5118680;28;20208;-86
2022/10/26 11:08:39;;;;;;;3.57;1.40;;;23.70;99.90;;;;;;5120018;28;20158;-85
2022/10/26 11:11:11;;;;;;;4.10;1.40;;;22.50;99.90;;;;;;5119940;28;20187;-85
2022/10/26 11:13:43;;;;;;;2.87;1.20;;;22.20;99.90;;;;;;5121041;28;20190;-86
2022/10/26 11:16:18;;;;;;;3.57;1.50;;;21.70;99.90;;;;;;5119869;28;20166;-85
2022/10/26 11:18:54;;;;;;;3.70;1.40;;;21.20;99.90;;;;;;5119434;28;20168;-85
2022/10/26 11:21:27;;;;;;;5.90;1.87;;;20.50;99.90;;;;;;5119516;28;20188;-84
2022/10/26 11:24:00;;;;;;;3.83;1.57;;;20.40;99.90;;;;;;5119366;28;20253;-86
2022/10/26 11:26:41;;;;;;;4.67;1.40;;;20.20;99.90;;;;;;5119249;28;20188;-84
2022/10/26 11:29:28;;;;;;;3.33;1.37;;;20.30;99.90;;;;;;5118849;28;20167;-86
2022/10/26 11:32:12;;;;;;;3.00;1.20;;;20.40;99.90;;;;;;5120874;28;20191;-86
2022/10/26 11:34:58;;;;;;;4.57;1.43;;;21.00;99.90;;;;;;5120193;28;20164;-86
2022/10/26 11:37:43;;;;;;;2.33;1.43;;;22.10;99.90;;;;;;5119410;28;20692;-85
2022/10/26 11:40:52;;;;;;;5.00;1.53;;;22.70;99.90;;;;;;5119068;28;20177;-84
2022/10/26 11:43:42;;;;;;;3.37;1.43;;;22.50;99.90;;;;;;5102633;28;20187;-86
2022/10/26 11:46:20;;;;;;;6.20;1.50;;;21.60;99.90;;;;;;5121160;28;20701;-85
2022/10/26 11:49:09;;;;;;;8.80;1.23;;;20.90;99.90;;;;;;5119382;28;20182;-84
2022/10/26 11:51:54;;;;;;;4.27;1.70;;;20.50;99.90;;;;;;5121172;28;20195;-84
2022/10/26 11:54:31;;;;;;;3.47;1.73;;;20.40;99.90;;;;;;5119596;28;20202;-83
2022/10/26 11:56:58;;;;;;;4.90;1.50;;;20.10;99.90;;;;;;5119920;28;20161;-83
2022/10/26 11:59:31;;;;;;;6.63;1.67;;;20.00;99.90;;;;;;5119849;28;20175;-83
2022/10/26 12:02:09;;;;;;;3.07;1.50;;;19.90;99.90;;;;;;5117289;28;20198;-83
2022/10/26 12:04:37;;;;;;;5.63;1.70;;;19.80;99.90;;;;;;5116392;28;20227;-81
2022/10/26 12:07:18;;;;;;;6.10;1.63;;;19.80;99.90;;;;;;5117367;28;20186;-82
2022/10/26 12:09:44;;;;;;;4.67;1.80;;;19.90;99.90;;;;;;5123826;28;20159;-85
2022/10/26 12:12:31;;;;;;;8.03;2.23;;;20.20;99.90;;;;;;5125694;28;20191;-86
2022/10/26 12:15:25;;;;;;;6.60;2.40;;;20.20;99.90;;;;;;5133559;28;20175;-85
2022/10/26 12:18:01;;;;;;;4.03;1.53;;;20.20;99.90;;;;;;5126635;28;20176;-86
2022/10/26 12:20:45;;;;;;;5.47;1.83;;;20.00;99.90;;;;;;5117907;28;20639;-85
2022/10/26 12:23:12;;;;;;;5.13;1.83;;;20.20;99.90;;;;;;5117812;28;20170;-86
2022/10/26 12:25:38;;;;;;;5.07;1.57;;;20.20;99.90;;;;;;5117605;28;20200;-85
2022/10/26 12:28:04;;;;;;;4.57;1.87;;;20.00;99.90;;;;;;5117933;28;20178;-84
2022/10/26 12:30:32;;;;;;;4.20;1.80;;;19.70;99.90;;;;;;5117409;28;20202;-87
2022/10/26 12:33:04;;;;;;;5.17;1.83;;;19.70;99.90;;;;;;5120605;28;20172;-84
2022/10/26 12:35:41;;;;;;;7.37;2.77;;;19.50;99.90;;;;;;5119947;28;20263;-85
2022/10/26 12:38:22;;;;;;;9.17;2.07;;;19.40;99.90;;;;;;5121581;28;20252;-84
2022/10/26 12:41:17;;;;;;;7.37;1.90;;;19.30;99.90;;;;;;5122261;28;20191;-85
2022/10/26 12:43:43;;;;;;;5.67;1.90;;;19.30;99.90;;;;;;5122251;28;20167;-83
2022/10/26 12:46:12;;;;;;;6.47;1.80;;;19.30;99.90;;;;;;5122844;28;20179;-84
2022/10/26 12:48:42;;;;;;;5.47;1.90;;;19.20;99.90;;;;;;5120816;28;20519;-83
2022/10/26 12:51:20;;;;;;;5.17;1.80;;;19.20;99.90;;;;;;5121837;28;20199;-84
2022/10/26 12:54:20;;;;;;;5.63;1.87;;;19.30;99.90;;;;;;5121899;28;20174;-84
2022/10/26 12:57:16;;;;;;;7.30;1.90;;;19.30;99.90;;;;;;5121937;28;20260;-84
2022/10/26 12:59:59;;;;;;;4.30;2.10;;;19.40;99.90;;;;;;5120238;28;20187;-84
2022/10/26 13:02:57;;;;;;;3.63;1.77;;;19.50;99.90;;;;;;5121834;27;20202;-84
2022/10/26 13:06:01;;;;;;;5.13;1.77;;;19.70;99.90;;;;;;5094815;28;20258;-85
2022/10/26 13:08:36;;;;;;;6.17;2.50;;;19.60;99.90;;;;;;5120190;28;20268;-85
2022/10/26 13:11:34;;;;;;;5.40;1.47;;;19.50;99.90;;;;;;5122249;28;20196;-85
2022/10/26 13:14:06;;;;;;;5.93;2.20;;;19.50;99.90;;;;;;5106670;28;20184;-84
2022/10/26 13:16:33;;;;;;;4.07;1.47;;;19.40;99.90;;;;;;5118350;28;20203;-85
2022/10/26 13:18:59;;;;;;;4.80;1.97;;;19.30;99.90;;;;;;5118053;28;20176;-85
2022/10/26 13:21:26;;;;;;;6.70;2.37;;;19.40;99.90;;;;;;5118015;28;20555;-84
2022/10/26 13:23:52;;;;;;;3.67;1.60;;;19.30;99.90;;;;;;5118827;28;20652;-84
2022/10/26 13:26:21;;;;;;;6.07;1.90;;;19.30;99.90;;;;;;5118666;28;20182;-84
2022/10/26 13:28:53;;;;;;;5.90;1.60;;;19.30;99.90;;;;;;5118895;28;20692;-86
2022/10/26 13:31:30;;;;;;;5.93;2.30;;;19.30;99.90;;;;;;5117423;28;20708;-85
2022/10/26 13:34:03;;;;;;;3.00;1.70;;;19.30;99.90;;;;;;5118550;28;20286;-85
2022/10/26 13:36:37;;;;;;;5.33;2.00;;;19.40;99.90;;;;;;5118568;28;20166;-85
2022/10/26 13:39:13;;;;;;;4.60;1.73;;;19.40;99.90;;;;;;5117195;28;20176;-84
2022/10/26 13:41:44;;;;;;;6.33;1.93;;;19.40;99.90;;;;;;5117838;28;20188;-86
2022/10/26 13:44:20;;;;;;;5.10;1.73;;;19.30;99.90;;;;;;5117333;28;20218;-87
2022/10/26 13:46:53;;;;;;;7.27;1.80;;;19.10;99.90;;;;;;5126621;28;20179;-88
2022/10/26 13:49:25;;;;;;;6.07;2.10;;;19.10;99.90;;;;;;5126519;28;20156;-89
2022/10/26 13:51:51;;;;;;;8.03;2.37;;;18.80;99.90;;;;;;5128678;28;20192;-86
2022/10/26 13:54:54;;;;;;;9.73;2.20;;;18.70;99.90;;;;;;5126337;28;20179;-87
2022/10/26 13:57:31;;;;;;;6.83;2.00;;;18.50;99.90;;;;;;5084996;28;20179;-85
2022/10/26 13:59:58;;;;;;;9.23;1.70;;;18.50;99.90;;;;;;5118490;28;20651;-85
2022/10/26 14:02:28;;;;;;;7.37;2.00;;;18.50;99.90;;;;;;5116540;28;20196;-85
2022/10/26 14:05:00;;;;;;;9.10;2.20;;;18.40;99.90;;;;;;5116388;28;20565;-86
2022/10/26 14:07:36;;;;;;;7.40;2.33;;;18.40;99.90;;;;;;5117172;28;20176;-84
2022/10/26 14:10:03;;;;;;;6.43;2.30;;;18.40;99.90;;;;;;5116493;28;20228;-86
2022/10/26 14:12:29;;;;;;;6.73;2.03;;;18.40;99.90;;;;;;5115885;28;20187;-86
2022/10/26 14:15:16;;;;;;;5.67;2.07;;;18.30;99.90;;;;;;5116245;28;20183;-86
2022/10/26 14:17:42;;;;;;;7.77;2.20;;;18.30;99.90;;;;;;5115782;28;20234;-87
2022/10/26 14:20:20;;;;;;;6.00;2.17;;;18.20;99.90;;;;;;5116831;28;20629;-86
2022/10/26 14:22:46;;;;;;;7.47;1.97;;;18.20;99.90;;;;;;5115538;28;20195;-88
2022/10/26 14:25:26;;;;;;;7.27;2.23;;;18.20;99.90;;;;;;5115526;28;20206;-85
2022/10/26 14:27:54;;;;;;;7.13;2.03;;;18.10;99.90;;;;;;5115182;28;20170;-87
2022/10/26 14:30:26;;;;;;;12.33;3.00;;;18.00;99.90;;;;;;5117525;28;20171;-84
2022/10/26 14:32:52;;;;;;;9.93;2.20;;;18.00;99.90;;;;;;5115778;28;20163;-86
2022/10/26 14:35:23;;;;;;;8.00;2.13;;;18.00;99.90;;;;;;5115965;28;20176;-85
2022/10/26 14:37:57;;;;;;;5.97;1.93;;;17.90;99.90;;;;;;5115669;28;20177;-86
2022/10/26 14:40:27;;;;;;;5.07;2.17;;;17.90;99.90;;;;;;5116075;28;20517;-88
2022/10/26 14:42:58;;;;;;;5.57;2.20;;;17.80;99.90;;;;;;5115518;28;20584;-87
2022/10/26 14:45:27;;;;;;;5.37;2.23;;;17.80;99.90;;;;;;5115293;28;20593;-86
2022/10/26 14:47:53;;;;;;;11.73;2.23;;;17.70;99.90;;;;;;5114903;28;20172;-85
2022/10/26 14:50:22;;;;;;;8.33;2.53;;;17.70;99.90;;;;;;5115914;28;20271;-86
2022/10/26 14:52:57;;;;;;;10.40;2.40;;;17.60;99.90;;;;;;5115890;28;20194;-85
2022/10/26 14:55:23;;;;;;;4.87;2.13;;;17.60;99.90;;;;;;5114451;28;20231;-84
2022/10/26 14:57:52;;;;;;;12.20;2.77;;;17.60;99.90;;;;;;5115417;28;20176;-84
2022/10/26 15:00:23;;;;;;;11.40;3.20;;;17.60;99.90;;;;;;5116569;28;20174;-85
2022/10/26 15:02:54;;;;;;;10.53;3.07;;;17.50;99.90;;;;;;5116785;27;20194;-84
2022/10/26 15:05:23;;;;;;;4.07;2.10;;;17.60;99.90;;;;;;5115090;28;20199;-85
2022/10/26 15:07:50;;;;;;;8.67;2.07;;;17.60;99.90;;;;;;5114953;28;20530;-84
2022/10/26 15:10:37;;;;;;;7.43;2.47;;;17.60;99.90;;;;;;5117950;28;20172;-83
2022/10/26 15:13:24;;;;;;;10.10;2.47;;;17.60;99.90;;;;;;5116113;28;20624;-83
2022/10/26 15:15:52;;;;;;;4.90;2.00;;;17.60;99.90;;;;;;5114537;28;20184;-83
2022/10/26 15:18:28;;;;;;;12.37;2.47;;;17.70;99.90;;;;;;5117689;28;20209;-85
2022/10/26 15:20:55;;;;;;;7.10;2.43;;;17.70;99.90;;;;;;5116537;28;20201;-85
2022/10/26 15:23:22;;;;;;;5.20;1.83;;;17.70;99.90;;;;;;5118726;28;20177;-84
2022/10/26 15:25:57;;;;;;;7.57;2.07;;;17.70;99.90;;;;;;5120262;28;20677;-85
2022/10/26 15:28:41;;;;;;;6.73;2.30;;;17.70;99.90;;;;;;5118274;28;20240;-83
2022/10/26 15:31:10;;;;;;;8.27;2.60;;;17.70;99.90;;;;;;5129763;28;20588;-83
2022/10/26 15:33:37;;;;;;;8.23;2.07;;;;;;;;;;5129508;28;20181;-85
2022/10/26 15:36:16;;;;;;;10.63;2.77;;;17.60;99.90;;;;;;5118537;28;20179;-84
2022/10/26 15:38:43;;;;;;;9.97;3.10;;;17.60;99.90;;;;;;5114676;28;20652;-85
2022/10/26 15:41:18;;;;;;;13.13;2.80;;;17.60;99.90;;;;;;5116366;28;20220;-85
2022/10/26 15:43:48;;;;;;;5.50;2.47;;;17.60;99.90;;;;;;5115912;28;20181;-84
2022/10/26 15:46:14;;;;;;;8.47;2.23;;;17.50;99.90;;;;;;5118078;28;20258;-84
2022/10/26 15:48:40;;;;;;;6.33;3.23;;;;;;;;;;5115752;28;20668;-84
2022/10/26 15:51:10;;;;;;;4.27;3.03;;;17.50;99.90;;;;;;5116898;28;20647;-85
2022/10/26 15:53:35;;;;;;;8.47;2.90;;;17.50;99.90;;;;;;5115552;28;20175;-84
2022/10/26 15:56:02;;;;;;;10.53;2.33;;;17.40;99.90;;;;;;5117094;28;20192;-85
2022/10/26 15:58:30;;;;;;;7.97;2.37;;;17.30;99.90;;;;;;5118111;28;20176;-82
2022/10/26 16:00:56;;;;;;;11.63;3.30;;;17.20;99.90;;;;;;5117601;28;20203;-84
2022/10/26 16:03:24;;;;;;;7.53;2.90;;;17.20;99.90;;;;;;5117329;28;20266;-84
2022/10/26 16:05:55;;;;;;;9.93;2.83;;;17.00;99.90;;;;;;5119701;28;20225;-85
2022/10/26 16:08:21;;;;;;;8.83;2.77;;;16.90;99.90;;;;;;5121969;28;20176;-85
2022/10/26 16:10:47;;;;;;;10.10;3.33;;;16.70;99.90;;;;;;5121003;28;20198;-84
2022/10/26 16:13:14;;;;;;;13.33;3.30;;;16.70;99.90;;;;;;5121753;28;20172;-85
2022/10/26 16:15:40;;;;;;;10.63;3.43;;;16.60;99.90;;;;;;5121364;28;20168;-84
2022/10/26 16:18:06;;;;;;;15.93;3.50;;;16.50;99.90;;;;;;5119587;28;20180;-85
2022/10/26 16:20:32;;;;;;;12.60;3.20;;;16.20;99.90;;;;;;5120591;28;20199;-85
2022/10/26 16:23:00;;;;;;;9.30;3.40;;;16.20;99.90;;;;;;5122815;28;20225;-85
2022/10/26 16:25:26;;;;;;;10.50;3.27;;;16.00;99.90;;;;;;5121828;28;20204;-85
2022/10/26 16:27:54;;;;;;;14.93;4.70;;;15.90;99.90;;;;;;5125108;28;20175;-83
2022/10/26 16:30:20;;;;;;;13.33;4.20;;;15.90;99.90;;;;;;5122686;28;20179;-86
2022/10/26 16:32:46;;;;;;;15.90;3.20;;;15.80;99.90;;;;;;5125823;28;20200;-85
2022/10/26 16:35:12;;;;;;;29.07;15.93;;;15.60;99.90;;;;;;5123321;28;20178;-84
2022/10/26 16:37:38;;;;;;;46.83;22.23;;;15.60;99.90;;;;;;5125007;28;20187;-83
2022/10/26 16:40:06;;;;;;;131.70;77.27;;;15.70;99.90;;;;;;5122782;28;20187;-83
2022/10/26 16:42:32;;;;;;;156.20;96.87;;;15.60;99.90;;;;;;5123287;28;20214;-84
2022/10/26 16:44:58;;;;;;;96.40;57.07;;;15.50;99.90;;;;;;5122470;28;20624;-84
2022/10/26 16:47:24;;;;;;;73.10;43.80;;;15.40;99.90;;;;;;5121957;28;20580;-85
2022/10/26 16:49:50;;;;;;;29.93;16.67;;;15.40;99.90;;;;;;5124697;28;20182;-84
2022/10/26 16:52:16;;;;;;;13.97;6.90;;;;;;;;;;5125220;28;20192;-84
2022/10/26 16:54:41;;;;;;;13.23;5.03;;;15.20;99.90;;;;;;5130922;28;20176;-85
2022/10/26 16:57:07;;;;;;;8.73;5.00;;;15.20;99.90;;;;;;5140211;27;20164;-84
2022/10/26 16:59:33;;;;;;;17.20;5.80;;;;;;;;;;5140806;27;20202;-80
2022/10/26 17:02:00;;;;;;;19.73;7.27;;;;;;;;;;5139695;28;20202;-81
2022/10/26 17:04:25;;;;;;;11.47;5.03;;;15.00;99.90;;;;;;5139511;28;20259;-84
2022/10/26 17:06:51;;;;;;;11.33;3.93;;;14.90;99.90;;;;;;5139407;28;20179;-82
2022/10/26 17:09:16;;;;;;;13.87;4.17;;;14.80;99.90;;;;;;5140320;28;20176;-81
2022/10/26 17:11:42;;;;;;;4.70;2.93;;;;;;;;;;5134844;28;20613;-84
2022/10/26 17:14:08;;;;;;;7.13;2.80;;;14.80;99.90;;;;;;5122101;28;20207;-83
2022/10/26 17:16:34;;;;;;;9.60;3.40;;;14.80;99.90;;;;;;5120320;28;20183;-83
2022/10/26 17:19:00;;;;;;;8.90;3.83;;;14.80;99.90;;;;;;5122709;28;20176;-83
2022/10/26 17:21:34;;;;;;;27.00;14.13;;;14.80;99.90;;;;;;5123009;28;20200;-84
2022/10/26 17:24:00;;;;;;;9.47;4.63;;;14.40;99.90;;;;;;5122391;28;20179;-84
2022/10/26 17:26:27;;;;;;;30.00;17.43;;;14.50;99.90;;;;;;5122764;28;20168;-83
2022/10/26 17:28:55;;;;;;;15.70;9.23;;;14.70;99.90;;;;;;5121459;28;20171;-84
2022/10/26 17:31:22;;;;;;;13.23;5.03;;;14.60;99.90;;;;;;5120724;28;20207;-83
2022/10/26 17:33:49;;;;;;;12.23;5.60;;;14.60;99.90;;;;;;5121886;28;20171;-84
2022/10/26 17:36:19;;;;;;;12.77;4.67;;;14.50;99.90;;;;;;5122325;28;20707;-84
2022/10/26 17:38:47;;;;;;;10.07;4.30;;;14.40;99.90;;;;;;5120284;28;20560;-83
2022/10/26 17:41:14;;;;;;;7.90;3.90;;;14.30;99.90;;;;;;5120712;28;20213;-84
2022/10/26 17:43:41;;;;;;;11.63;4.33;;;14.30;99.90;;;;;;5120663;28;20172;-83
2022/10/26 17:46:10;;;;;;;12.57;5.33;;;14.20;99.90;;;;;;5123351;28;20208;-84
2022/10/26 17:48:36;;;;;;;11.20;4.17;;;;;;;;;;5121012;28;20175;-84
2022/10/26 17:51:05;;;;;;;7.53;4.37;;;14.20;99.90;;;;;;5123189;28;20199;-84
2022/10/26 17:53:31;;;;;;;12.80;4.90;;;14.20;99.90;;;;;;5120623;28;20180;-86
2022/10/26 17:56:11;;;;;;;13.70;6.20;;;14.10;99.90;;;;;;5122751;28;20175;-83
2022/10/26 17:58:37;;;;;;;12.43;5.30;;;14.10;99.90;;;;;;5122268;28;20170;-83
2022/10/26 18:01:05;;;;;;;17.07;6.60;;;14.00;99.90;;;;;;5120723;28;20203;-83
2022/10/26 18:03:32;;;;;;;12.70;6.83;;;13.90;99.90;;;;;;5123424;28;20180;-84
2022/10/26 18:05:58;;;;;;;16.13;8.10;;;;;;;;;;5123195;28;20731;-83
2022/10/26 18:08:24;;;;;;;20.13;8.43;;;;;;;;;;5125190;28;20171;-84
2022/10/26 18:10:54;;;;;;;20.57;11.07;;;13.80;99.90;;;;;;5122421;28;20675;-84
2022/10/26 18:13:20;;;;;;;20.80;7.27;;;;;;;;;;5118596;28;20175;-84
2022/10/26 18:15:45;;;;;;;17.67;5.80;;;13.60;99.90;;;;;;5118789;28;20187;-83
2022/10/26 18:18:12;;;;;;;17.20;5.40;;;;;;;;;;5119955;28;20717;-83
2022/10/26 18:20:38;;;;;;;10.20;4.17;;;;;;;;;;5121405;28;20199;-84
2022/10/26 18:23:04;;;;;;;12.13;5.30;;;13.80;99.90;;;;;;5119997;28;20545;-84
2022/10/26 18:25:30;;;;;;;15.47;4.53;;;;;;;;;;5120601;28;20692;-83
2022/10/26 18:27:56;;;;;;;19.23;5.40;;;13.60;99.90;;;;;;5118533;28;20186;-84
2022/10/26 18:30:22;;;;;;;9.53;4.43;;;13.60;99.90;;;;;;5120260;28;20178;-84
2022/10/26 18:32:49;;;;;;;12.17;4.97;;;13.50;99.90;;;;;;5120614;28;20195;-83
2022/10/26 18:35:15;;;;;;;11.17;5.47;;;13.40;99.90;;;;;;5120179;28;20601;-83
2022/10/26 18:37:41;;;;;;;12.63;5.57;;;13.50;99.90;;;;;;5120905;28;20183;-83
2022/10/26 18:40:07;;;;;;;9.53;4.73;;;13.40;99.90;;;;;;5120303;28;20662;-84
2022/10/26 18:42:33;;;;;;;10.13;5.03;;;;;;;;;;5119882;28;20748;-83
2022/10/26 18:45:01;;;;;;;9.10;4.90;;;13.30;99.90;;;;;;5123483;28;20675;-83
2022/10/26 18:47:31;;;;;;;12.50;5.33;;;13.30;99.90;;;;;;5124870;28;20254;-84
2022/10/26 18:49:57;;;;;;;12.67;5.37;;;13.20;99.90;;;;;;5120619;28;20645;-83
2022/10/26 18:52:26;;;;;;;14.23;4.70;;;13.20;99.90;;;;;;5121327;28;20202;-83
2022/10/26 18:54:53;;;;;;;13.33;4.40;;;13.30;99.90;;;;;;5121139;28;20178;-84
2022/10/26 18:57:23;;;;;;;14.23;4.97;;;13.10;99.90;;;;;;5121680;28;20636;-82
2022/10/26 18:59:49;;;;;;;11.47;7.67;;;13.00;99.90;;;;;;5120974;28;20197;-83
2022/10/26 19:02:15;;;;;;;15.40;7.23;;;13.00;99.90;;;;;;5121420;28;20203;-85
2022/10/26 19:04:40;;;;;;;15.90;5.97;;;13.00;99.90;;;;;;5119577;28;20195;-84
2022/10/26 19:07:06;;;;;;;11.43;5.60;;;12.90;99.90;;;;;;5118219;28;20240;-84
2022/10/26 19:09:32;;;;;;;12.10;6.60;;;13.00;99.90;;;;;;5119473;28;20172;-84
2022/10/26 19:11:58;;;;;;;10.77;5.30;;;;;;;;;;5120152;28;20191;-84
2022/10/26 19:14:24;;;;;;;8.20;5.80;;;12.80;99.90;;;;;;5116195;28;20547;-83
2022/10/26 19:16:51;;;;;;;13.10;6.27;;;12.90;99.90;;;;;;5116488;28;20183;-82
2022/10/26 19:19:18;;;;;;;10.13;6.13;;;12.80;99.90;;;;;;5121010;28;20183;-85
2022/10/26 19:21:48;;;;;;;16.20;6.23;;;12.80;99.90;;;;;;5119358;28;20196;-83
2022/10/26 19:24:18;;;;;;;16.20;6.17;;;12.80;99.90;;;;;;5118021;28;20638;-84
2022/10/26 19:26:45;;;;;;;10.30;5.30;;;12.80;99.90;;;;;;5117657;28;20171;-84
2022/10/26 19:29:16;;;;;;;10.73;4.83;;;12.80;99.90;;;;;;5118980;28;20175;-84
2022/10/26 19:31:46;;;;;;;12.30;5.53;;;12.80;99.90;;;;;;5117056;28;20247;-83
2022/10/26 19:34:13;;;;;;;10.27;5.40;;;12.80;99.90;;;;;;5118774;28;20167;-84
2022/10/26 19:36:42;;;;;;;11.47;6.30;;;12.70;99.90;;;;;;5118178;28;20172;-85
2022/10/26 19:39:08;;;;;;;7.67;5.00;;;12.70;99.90;;;;;;5116762;28;20198;-85
2022/10/26 19:41:34;;;;;;;15.77;5.00;;;12.60;99.90;;;;;;5122025;28;20219;-84
2022/10/26 19:44:00;;;;;;;15.37;5.73;;;12.60;99.90;;;;;;5118921;28;20198;-84
2022/10/26 19:46:28;;;;;;;13.73;5.27;;;12.50;99.90;;;;;;5117327;28;20543;-84
2022/10/26 19:48:56;;;;;;;12.90;5.00;;;12.50;99.90;;;;;;5116999;28;20183;-84
2022/10/26 19:51:23;;;;;;;13.33;5.00;;;12.50;99.90;;;;;;5118775;28;20205;-85
2022/10/26 19:53:49;;;;;;;31.30;14.40;;;12.50;99.90;;;;;;5118223;28;20176;-84
2022/10/26 19:56:15;;;;;;;23.00;8.97;;;12.40;99.90;;;;;;5117905;28;20190;-83
2022/10/26 19:58:43;;;;;;;13.33;5.60;;;12.30;99.90;;;;;;5117763;28;20225;-83
2022/10/26 20:01:10;;;;;;;9.83;5.30;;;12.30;99.90;;;;;;5119817;28;20205;-82
2022/10/26 20:03:36;;;;;;;12.47;5.13;;;12.30;99.90;;;;;;5118599;28;20183;-83
2022/10/26 20:06:11;;;;;;;11.13;5.50;;;12.30;99.90;;;;;;5119383;28;20272;-84
2022/10/26 20:08:38;;;;;;;10.23;5.23;;;12.30;99.90;;;;;;5120922;28;20163;-84
2022/10/26 20:11:06;;;;;;;13.50;5.00;;;12.20;99.90;;;;;;5130100;28;20187;-83
2022/10/26 20:13:32;;;;;;;9.30;5.93;;;12.20;99.90;;;;;;5134813;28;20175;-84
2022/10/26 20:15:58;;;;;;;13.73;5.30;;;12.20;99.90;;;;;;5122438;28;20186;-84
2022/10/26 20:18:24;;;;;;;13.07;5.10;;;;;;;;;;5119130;28;20177;-86
2022/10/26 20:20:49;;;;;;;10.73;5.30;;;12.10;99.90;;;;;;5118059;28;20203;-84
2022/10/26 20:23:15;;;;;;;9.93;5.10;;;12.10;99.90;;;;;;5118588;28;20243;-83
2022/10/26 20:25:46;;;;;;;16.13;6.27;;;12.10;99.90;;;;;;5119938;28;20199;-84
2022/10/26 20:28:12;;;;;;;12.90;5.20;;;12.00;99.90;;;;;;5121362;28;20176;-81
2022/10/26 20:30:38;;;;;;;9.77;5.70;;;12.00;99.90;;;;;;5128606;28;20174;-85
2022/10/26 20:33:04;;;;;;;10.23;5.93;;;12.00;99.90;;;;;;5140862;28;20200;-85
2022/10/26 20:35:31;;;;;;;9.17;5.33;;;12.00;99.90;;;;;;5143644;28;20182;-84
2022/10/26 20:37:58;;;;;;;11.33;5.13;;;12.00;99.90;;;;;;5138652;28;20252;-84
2022/10/26 20:40:25;;;;;;;11.97;4.90;;;11.90;99.90;;;;;;5138531;28;20178;-84
2022/10/26 20:42:51;;;;;;;10.40;5.17;;;11.80;99.90;;;;;;5139346;28;20206;-84
2022/10/26 20:45:23;;;;;;;10.27;5.30;;;11.80;99.90;;;;;;5139846;28;20203;-84
2022/10/26 20:47:49;;;;;;;11.97;5.20;;;11.70;99.90;;;;;;5139841;28;20636;-84